createdAt,value
2022-10-05T00:00:00.646Z,16.65
2022-10-05T00:10:14.784Z,16.58
2022-10-05T00:20:23.740Z,16.67
2022-10-05T00:30:31.916Z,16.69
2022-10-05T00:40:46.571Z,16.55
2022-10-05T00:51:09.320Z,16.51
2022-10-05T01:01:16.104Z,16.43
2022-10-05T01:11:26.556Z,16.44
2022-10-05T01:21:36.837Z,16.57
2022-10-05T01:31:49.515Z,16.60
2022-10-05T01:42:00.885Z,16.49
2022-10-05T01:52:14.871Z,16.56
2022-10-05T02:02:19.780Z,16.57
2022-10-05T02:12:28.213Z,16.58
2022-10-05T02:22:35.868Z,16.57
2022-10-05T02:32:45.189Z,16.54
2022-10-05T02:42:57.426Z,16.48
2022-10-05T02:53:12.439Z,16.46
2022-10-05T03:03:24.348Z,16.39
2022-10-05T03:13:35.360Z,16.41
2022-10-05T03:23:50.750Z,16.32
2022-10-05T03:34:00.540Z,16.33
2022-10-05T03:44:18.572Z,16.28
2022-10-05T03:54:29.947Z,16.19
2022-10-05T04:04:35.899Z,16.19
2022-10-05T04:14:45.719Z,16.06
2022-10-05T04:24:53.035Z,16.13
2022-10-05T04:35:09.202Z,16.03
2022-10-05T04:45:20.892Z,15.86
2022-10-05T04:55:32.678Z,15.82
2022-10-05T05:06:15.443Z,15.82
2022-10-05T05:16:26.247Z,15.63
2022-10-05T05:26:38.859Z,15.37
2022-10-05T05:36:53.969Z,15.28
2022-10-05T05:47:04.573Z,15.26
2022-10-05T05:57:14.095Z,15.25
2022-10-05T06:07:20.822Z,15.31
2022-10-05T06:17:29.989Z,15.33
2022-10-05T06:27:37.740Z,15.33
2022-10-05T06:38:08.752Z,15.27
2022-10-05T06:48:20.971Z,15.28
2022-10-05T06:58:40.656Z,15.39
2022-10-05T07:09:14.187Z,15.57
2022-10-05T07:19:32.183Z,15.92
2022-10-05T07:29:44.069Z,16.13
2022-10-05T07:40:01.222Z,16.08
2022-10-05T07:50:17.523Z,16.08
2022-10-05T08:00:23.789Z,16.34
2022-10-05T08:10:33.897Z,16.43
2022-10-05T08:20:43.379Z,16.84
2022-10-05T08:31:09.001Z,16.81
2022-10-05T08:41:43.597Z,16.91
2022-10-05T08:52:07.711Z,17.18
2022-10-05T09:02:22.943Z,17.28
2022-10-05T09:12:47.642Z,17.49
2022-10-05T09:23:09.861Z,17.58
2022-10-05T09:33:53.959Z,17.69
2022-10-05T09:44:28.096Z,17.87
2022-10-05T09:55:06.539Z,17.91
2022-10-05T10:05:32.712Z,18.03
2022-10-05T10:16:09.670Z,18.23
2022-10-05T10:27:00.920Z,18.02
2022-10-05T10:37:34.386Z,18.05
2022-10-05T10:47:48.108Z,18.07
2022-10-05T10:58:16.035Z,18.59
2022-10-05T11:08:55.070Z,18.36
2022-10-05T11:19:40.561Z,18.51
2022-10-05T11:30:13.477Z,18.63
2022-10-05T11:40:34.185Z,18.49
2022-10-05T11:50:43.307Z,18.65
2022-10-05T12:00:55.193Z,18.53
2022-10-05T12:11:09.636Z,18.32
2022-10-05T12:21:18.471Z,18.71
2022-10-05T12:31:30.526Z,18.83
2022-10-05T12:41:37.126Z,18.80
2022-10-05T12:51:46.003Z,18.86
2022-10-05T13:01:59.747Z,18.61
2022-10-05T13:12:10.253Z,18.58
2022-10-05T13:22:27.067Z,18.82
2022-10-05T13:32:36.510Z,18.91
2022-10-05T13:42:48.184Z,19.12
2022-10-05T13:52:57.475Z,19.08
2022-10-05T14:03:00.934Z,19.15
2022-10-05T14:13:20.393Z,19.69
2022-10-05T14:23:27.196Z,19.77
2022-10-05T14:33:32.745Z,19.85
2022-10-05T14:43:35.778Z,19.79
2022-10-05T14:53:41.718Z,19.81
2022-10-05T15:03:49.682Z,19.72
2022-10-05T15:13:54.473Z,19.51
2022-10-05T15:24:01.147Z,19.50
2022-10-05T15:34:11.376Z,19.47
2022-10-05T15:44:22.895Z,19.38
2022-10-05T15:54:43.974Z,19.52
2022-10-05T16:04:53.132Z,19.30
2022-10-05T16:15:06.492Z,19.33
2022-10-05T16:25:18.724Z,19.25
2022-10-05T16:35:33.189Z,19.10
2022-10-05T16:45:52.941Z,18.91
2022-10-05T16:56:02.778Z,18.87
2022-10-05T17:06:38.109Z,18.85
2022-10-05T17:16:54.419Z,18.92
2022-10-05T17:27:03.438Z,18.89
2022-10-05T17:37:36.144Z,18.86
2022-10-05T17:47:57.771Z,18.76
2022-10-05T17:58:41.556Z,18.91
2022-10-05T18:08:44.574Z,19.09
2022-10-05T18:18:59.133Z,18.86
2022-10-05T18:29:37.013Z,19.05
2022-10-05T18:39:57.248Z,19.10
2022-10-05T18:50:14.783Z,18.92
2022-10-05T19:00:21.281Z,18.89
2022-10-05T19:10:29.340Z,18.83
2022-10-05T19:20:37.820Z,18.63
2022-10-05T19:30:54.838Z,18.63
2022-10-05T19:41:06.780Z,18.57
2022-10-05T19:51:15.912Z,18.47
2022-10-05T20:01:30.644Z,18.44
2022-10-05T20:11:34.947Z,18.43
2022-10-05T20:21:47.853Z,18.21
2022-10-05T20:31:50.661Z,18.39
2022-10-05T20:41:54.809Z,17.76
2022-10-05T20:51:57.893Z,15.97
2022-10-05T21:02:02.363Z,15.71
2022-10-05T21:12:05.152Z,15.58
2022-10-05T21:22:10.356Z,15.37
2022-10-05T21:32:13.077Z,15.36
2022-10-05T21:42:17.081Z,15.40
2022-10-05T21:52:19.784Z,15.56
2022-10-05T22:02:23.935Z,15.54
2022-10-05T22:12:26.722Z,15.56
2022-10-05T22:22:30.989Z,15.27
2022-10-05T22:32:33.666Z,15.04
2022-10-05T22:42:38.820Z,15.15
2022-10-05T22:52:42.336Z,15.14
2022-10-05T23:02:46.424Z,15.33
2022-10-05T23:13:00.372Z,15.49
2022-10-05T23:23:04.925Z,15.53
2022-10-05T23:33:07.623Z,15.34
2022-10-05T23:43:11.627Z,15.30
2022-10-05T23:53:14.676Z,15.26
